createdAt,value
2019-04-23T00:02:05.323Z,71.17
2019-04-23T00:04:28.942Z,71.24
2019-04-23T00:07:07.327Z,71.25
2019-04-23T00:09:32.966Z,71.18
2019-04-23T00:12:03.285Z,71.23
2019-04-23T00:14:38.240Z,71.16
2019-04-23T00:17:12.066Z,71.24
2019-04-23T00:19:31.358Z,71.18
2019-04-23T00:22:25.155Z,71.32
2019-04-23T00:27:29.145Z,70.83
2019-04-23T00:29:56.071Z,71.30
2019-04-23T00:32:30.314Z,71.42
2019-04-23T00:39:56.515Z,71.90
2019-04-23T00:44:56.234Z,72.59
2019-04-23T00:47:33.232Z,72.32
2019-04-23T00:50:09.091Z,72.34
2019-04-23T00:55:09.990Z,72.72
2019-04-23T00:57:43.953Z,72.96
2019-04-23T01:02:32.873Z,73.70
2019-04-23T01:05:04.653Z,73.62
2019-04-23T01:07:32.985Z,73.39
2019-04-23T01:12:38.292Z,73.93
2019-04-23T01:15:07.598Z,73.72
2019-04-23T01:17:39.511Z,74.25
2019-04-23T01:20:11.076Z,75.23
2019-04-23T01:22:21.153Z,75.59
2019-04-23T01:24:52.848Z,75.42
2019-04-23T01:27:51.650Z,75.21
2019-04-23T01:30:20.056Z,74.98
2019-04-23T01:32:51.900Z,75.43
2019-04-23T01:37:47.765Z,76.11
2019-04-23T01:40:18.779Z,75.72
2019-04-23T01:42:43.910Z,75.82
2019-04-23T01:45:24.151Z,75.80
2019-04-23T01:47:49.599Z,75.98
2019-04-23T01:50:20.110Z,76.18
2019-04-23T01:52:52.704Z,75.70
2019-04-23T01:55:24.455Z,75.73
2019-04-23T01:57:58.549Z,75.36
2019-04-23T02:00:24.153Z,75.24
2019-04-23T02:05:24.453Z,76.30
2019-04-23T02:07:58.360Z,75.68
2019-04-23T02:10:32.947Z,75.82
2019-04-23T02:12:57.082Z,76.03
2019-04-23T02:15:25.002Z,76.04
2019-04-23T02:17:55.364Z,76.11
2019-04-23T02:20:25.880Z,76.32
2019-04-23T02:23:21.433Z,76.24
2019-04-23T02:28:19.042Z,76.27
2019-04-23T02:31:03.844Z,76.54
2019-04-23T02:33:29.842Z,77.31
2019-04-23T02:38:18.843Z,76.98
2019-04-23T02:43:22.690Z,76.69
2019-04-23T02:45:59.012Z,77.08
2019-04-23T02:48:23.941Z,76.96
2019-04-23T02:50:54.169Z,77.26
2019-04-23T02:53:25.649Z,77.97
2019-04-23T02:55:50.511Z,77.34
2019-04-23T03:01:06.856Z,78.11
2019-04-23T03:03:28.116Z,78.24
2019-04-23T03:08:17.113Z,78.85
2019-04-23T03:10:56.053Z,78.86
2019-04-23T03:13:29.623Z,78.52
2019-04-23T03:16:21.841Z,78.77
2019-04-23T03:21:42.641Z,78.50
2019-04-23T03:26:57.454Z,79.80
2019-04-23T03:29:19.634Z,80.37
2019-04-23T03:39:05.341Z,80.10
2019-04-23T03:41:48.541Z,80.18
2019-04-23T03:44:12.626Z,80.41
2019-04-23T03:46:36.564Z,79.52
2019-04-23T03:49:07.696Z,79.56
2019-04-23T03:54:26.326Z,79.79
2019-04-23T03:59:22.522Z,80.79
2019-04-23T04:01:48.616Z,80.27
2019-04-23T04:06:50.226Z,79.66
2019-04-23T04:09:34.858Z,79.64
2019-04-23T04:11:38.171Z,80.35
2019-04-23T04:19:29.460Z,80.19
2019-04-23T04:21:53.699Z,80.91
2019-04-23T04:24:21.765Z,80.66
2019-04-23T04:26:52.377Z,80.96
2019-04-23T04:29:21.547Z,80.97
2019-04-23T04:31:48.225Z,80.54
2019-04-23T04:35:00.326Z,80.46
2019-04-23T04:36:58.467Z,80.86
2019-04-23T04:39:21.686Z,81.57
2019-04-23T04:41:52.578Z,81.11
2019-04-23T04:46:55.539Z,80.91
2019-04-23T04:54:14.060Z,79.67
2019-04-23T04:59:17.725Z,80.22
2019-04-23T05:02:01.103Z,80.32
2019-04-23T05:04:26.891Z,80.01
2019-04-23T05:09:44.322Z,79.82
2019-04-23T05:11:51.743Z,79.58
2019-04-23T05:14:16.444Z,79.24
2019-04-23T05:16:52.782Z,79.22
2019-04-23T05:21:58.930Z,78.10
2019-04-23T05:24:33.622Z,77.68
2019-04-23T05:26:48.089Z,77.27
2019-04-23T05:29:14.568Z,77.35
2019-04-23T05:31:48.396Z,77.55
2019-04-23T05:34:22.195Z,76.49
2019-04-23T05:36:53.489Z,76.71
2019-04-23T05:39:31.342Z,76.55
2019-04-23T05:42:04.312Z,75.96
2019-04-23T05:44:38.339Z,75.37
2019-04-23T05:51:55.563Z,76.39
2019-04-23T05:54:27.298Z,75.56
2019-04-23T05:56:54.229Z,75.17
2019-04-23T05:59:23.225Z,76.10
2019-04-23T06:01:57.024Z,74.89
2019-04-23T06:04:36.953Z,74.58
2019-04-23T06:09:26.013Z,74.10
2019-04-23T06:11:56.973Z,73.86
2019-04-23T06:14:39.080Z,75.15
2019-04-23T06:24:28.940Z,72.53
2019-04-23T06:27:01.228Z,72.10
2019-04-23T06:34:29.206Z,71.28
2019-04-23T06:36:50.964Z,71.55
2019-04-23T06:39:24.226Z,71.64
2019-04-23T06:44:24.055Z,71.03
2019-04-23T06:46:56.877Z,70.01
2019-04-23T06:52:00.490Z,69.77
2019-04-23T06:54:24.451Z,69.79
2019-04-23T06:57:03.207Z,69.66
2019-04-23T06:59:24.497Z,68.93
2019-04-23T07:01:59.726Z,68.51
2019-04-23T07:04:23.965Z,67.96
2019-04-23T07:07:13.630Z,67.25
2019-04-23T07:09:20.624Z,66.92
2019-04-23T07:11:51.747Z,66.76
2019-04-23T07:14:21.537Z,66.44
2019-04-23T07:16:52.877Z,66.09
2019-04-23T07:19:33.890Z,65.37
2019-04-23T07:22:02.466Z,64.86
2019-04-23T07:24:24.602Z,65.26
2019-04-23T07:26:45.536Z,63.80
2019-04-23T07:29:28.906Z,65.67
2019-04-23T07:31:58.998Z,64.94
2019-04-23T07:34:23.306Z,64.74
2019-04-23T07:36:56.162Z,63.65
2019-04-23T07:39:35.643Z,63.74
2019-04-23T07:48:01.806Z,62.97
2019-04-23T07:53:00.262Z,60.96
2019-04-23T07:58:03.068Z,61.51
2019-04-23T08:00:29.767Z,59.17
2019-04-23T08:03:01.564Z,58.64
2019-04-23T08:07:58.990Z,58.98
2019-04-23T08:12:56.283Z,58.66
2019-04-23T08:15:32.734Z,59.39
2019-04-23T08:17:50.214Z,59.74
2019-04-23T08:20:26.776Z,60.21
2019-04-23T08:22:56.848Z,59.96
2019-04-23T08:25:26.448Z,61.74
2019-04-23T08:27:57.729Z,61.57
2019-04-23T08:30:24.122Z,60.89
2019-04-23T08:32:58.858Z,60.16
2019-04-23T08:35:23.250Z,58.47
2019-04-23T08:40:27.666Z,58.20
2019-04-23T08:43:03.515Z,57.12
2019-04-23T08:53:19.984Z,55.23
2019-04-23T08:55:38.526Z,54.19
2019-04-23T08:58:09.673Z,51.35
2019-04-23T09:00:42.443Z,51.82
2019-04-23T09:03:12.875Z,52.65
2019-04-23T09:05:40.058Z,48.46
2019-04-23T09:08:32.817Z,44.79
2019-04-23T09:10:42.307Z,44.49
2019-04-23T09:13:33.227Z,43.62
2019-04-23T09:15:51.249Z,41.59
2019-04-23T09:18:09.314Z,42.28
2019-04-23T09:20:31.371Z,44.20
2019-04-23T09:23:03.038Z,45.61
2019-04-23T09:25:40.770Z,44.85
2019-04-23T09:28:13.784Z,43.29
2019-04-23T09:30:38.814Z,41.88
2019-04-23T09:33:26.315Z,40.11
2019-04-23T09:35:44.571Z,39.56
2019-04-23T09:38:44.963Z,40.32
2019-04-23T09:43:53.614Z,40.98
2019-04-23T09:46:32.572Z,39.20
2019-04-23T09:49:07.524Z,40.49
2019-04-23T09:51:29.909Z,38.19
2019-04-23T09:53:57.680Z,35.46
2019-04-23T09:56:29.837Z,35.00
2019-04-23T09:59:02.312Z,33.48
2019-04-23T10:03:47.568Z,33.86
2019-04-23T10:06:11.797Z,34.96
2019-04-23T10:08:39.526Z,35.48
2019-04-23T10:11:04.983Z,35.23
2019-04-23T10:13:34.471Z,35.40
2019-04-23T10:16:04.323Z,30.74
2019-04-23T10:18:33.227Z,29.34
2019-04-23T10:21:01.600Z,31.83
2019-04-23T10:23:31.531Z,31.25
2019-04-23T10:25:59.879Z,30.74
2019-04-23T10:28:33.801Z,32.06
2019-04-23T10:31:02.847Z,32.46
2019-04-23T10:33:31.886Z,32.33
2019-04-23T10:36:06.046Z,31.56
2019-04-23T10:38:32.742Z,31.08
2019-04-23T10:41:02.159Z,30.04
2019-04-23T10:43:33.207Z,30.25
2019-04-23T10:46:31.063Z,31.38
2019-04-23T10:54:27.917Z,29.18
2019-04-23T10:56:53.282Z,28.29
2019-04-23T10:59:27.191Z,31.34
2019-04-23T11:02:21.640Z,30.89
2019-04-23T11:04:38.499Z,29.10
2019-04-23T11:07:03.047Z,28.94
2019-04-23T11:09:42.416Z,33.10
2019-04-23T11:12:04.011Z,29.52
2019-04-23T11:14:33.040Z,29.69
2019-04-23T11:17:16.989Z,30.25
2019-04-23T11:19:50.841Z,30.04
2019-04-23T11:22:21.806Z,31.32
2019-04-23T11:24:36.155Z,31.14
2019-04-23T11:26:56.936Z,32.38
2019-04-23T11:29:33.845Z,30.93
2019-04-23T11:32:06.932Z,31.09
2019-04-23T11:34:47.845Z,30.07
2019-04-23T11:37:04.007Z,29.52
2019-04-23T11:39:30.927Z,29.26
2019-04-23T11:42:05.131Z,29.97
2019-04-23T11:44:34.181Z,29.24
2019-04-23T11:47:09.286Z,28.00
2019-04-23T11:49:48.295Z,28.71
2019-04-23T11:52:48.357Z,29.14
2019-04-23T11:54:30.637Z,28.84
2019-04-23T11:59:44.014Z,29.91
2019-04-23T12:02:12.057Z,31.75
2019-04-23T12:04:50.402Z,31.39
2019-04-23T12:07:14.094Z,30.14
2019-04-23T12:09:53.859Z,30.36
2019-04-23T12:12:10.409Z,32.09
2019-04-23T12:22:27.000Z,32.50
2019-04-23T12:27:25.533Z,31.19
2019-04-23T12:29:52.357Z,33.13
2019-04-23T12:35:01.539Z,33.24
2019-04-23T12:37:37.808Z,32.37
2019-04-23T12:40:12.870Z,30.99
2019-04-23T12:42:50.069Z,30.63
2019-04-23T12:45:05.139Z,32.80
2019-04-23T12:47:43.596Z,31.48
2019-04-23T12:52:37.110Z,30.32
2019-04-23T12:55:06.817Z,30.07
2019-04-23T12:57:37.167Z,30.02
2019-04-23T13:00:05.088Z,29.78
2019-04-23T13:02:39.690Z,30.21
2019-04-23T13:05:00.275Z,30.58
2019-04-23T13:07:43.677Z,30.97
2019-04-23T13:17:46.944Z,31.41
2019-04-23T13:20:15.074Z,31.18
2019-04-23T13:22:42.994Z,30.77
2019-04-23T13:25:10.161Z,31.62
2019-04-23T13:28:00.595Z,30.96
2019-04-23T13:30:23.189Z,30.47
2019-04-23T13:32:53.391Z,31.43
2019-04-23T13:37:59.542Z,30.80
2019-04-23T13:40:27.142Z,30.06
2019-04-23T13:42:55.190Z,30.55
2019-04-23T13:45:47.091Z,29.62
2019-04-23T13:48:00.658Z,29.78
2019-04-23T13:50:33.017Z,30.67
2019-04-23T13:55:15.308Z,31.03
2019-04-23T14:02:49.177Z,30.57
2019-04-23T14:05:45.547Z,31.23
2019-04-23T14:08:22.817Z,30.94
2019-04-23T14:10:39.800Z,31.06
2019-04-23T14:13:30.809Z,30.71
2019-04-23T14:15:59.367Z,31.14
2019-04-23T14:20:40.760Z,32.42
2019-04-23T14:23:14.474Z,32.96
2019-04-23T14:25:50.668Z,32.52
2019-04-23T14:30:44.787Z,31.87
2019-04-23T14:33:20.691Z,33.29
2019-04-23T14:38:27.174Z,32.55
2019-04-23T14:40:59.542Z,33.05
2019-04-23T14:43:14.518Z,33.45
2019-04-23T14:46:11.621Z,34.23
2019-04-23T14:48:19.660Z,33.93
2019-04-23T14:51:11.274Z,33.66
2019-04-23T14:55:56.476Z,32.86
2019-04-23T14:58:20.777Z,33.58
2019-04-23T15:01:07.553Z,33.48
2019-04-23T15:03:26.947Z,34.15
2019-04-23T15:06:05.338Z,34.30
2019-04-23T15:08:24.563Z,33.31
2019-04-23T15:11:09.554Z,34.56
2019-04-23T15:13:22.973Z,34.22
2019-04-23T15:16:04.744Z,36.28
2019-04-23T15:18:23.081Z,35.63
2019-04-23T15:21:27.699Z,35.30
2019-04-23T15:27:45.685Z,34.77
2019-04-23T15:28:20.282Z,35.58
2019-04-23T15:31:21.284Z,35.53
2019-04-23T15:33:54.962Z,35.55
2019-04-23T15:41:15.258Z,35.74
2019-04-23T15:43:52.173Z,35.35
2019-04-23T15:46:20.168Z,35.67
2019-04-23T15:48:54.674Z,36.54
2019-04-23T15:51:19.926Z,36.23
2019-04-23T15:53:41.967Z,35.29
2019-04-23T15:56:18.569Z,34.24
2019-04-23T15:58:57.934Z,33.86
2019-04-23T16:01:21.178Z,34.59
2019-04-23T16:03:20.577Z,35.25
2019-04-23T16:05:48.865Z,35.25
2019-04-23T16:08:56.822Z,35.94
2019-04-23T16:11:26.439Z,35.18
2019-04-23T16:14:07.205Z,35.43
2019-04-23T16:16:26.020Z,33.58
2019-04-23T16:19:02.118Z,33.91
2019-04-23T16:21:28.913Z,33.34
2019-04-23T16:23:50.728Z,33.90
2019-04-23T16:26:23.727Z,33.95
2019-04-23T16:34:14.139Z,36.18
2019-04-23T16:36:32.528Z,35.99
2019-04-23T16:41:32.679Z,36.91
2019-04-23T16:44:09.496Z,37.18
2019-04-23T16:46:34.617Z,36.66
2019-04-23T16:51:32.233Z,36.77
2019-04-23T16:54:10.084Z,36.17
2019-04-23T16:56:41.656Z,35.97
2019-04-23T16:59:08.460Z,36.79
2019-04-23T17:01:24.957Z,36.42
2019-04-23T17:04:08.202Z,35.15
2019-04-23T17:06:30.893Z,35.77
2019-04-23T17:09:05.234Z,37.15
2019-04-23T17:11:55.649Z,37.04
2019-04-23T17:16:33.938Z,37.54
2019-04-23T17:19:13.360Z,37.50
2019-04-23T17:21:36.826Z,36.32
2019-04-23T17:24:14.857Z,38.43
2019-04-23T17:26:39.312Z,39.59
2019-04-23T17:29:06.638Z,38.20
2019-04-23T17:34:14.025Z,38.21
2019-04-23T17:39:18.136Z,45.25
2019-04-23T17:44:46.978Z,44.16
2019-04-23T17:47:02.723Z,45.71
2019-04-23T17:49:26.418Z,48.18
2019-04-23T17:52:01.037Z,48.88
2019-04-23T17:54:41.194Z,49.81
2019-04-23T17:57:02.958Z,50.65
2019-04-23T17:59:33.314Z,51.48
2019-04-23T18:02:16.522Z,50.78
2019-04-23T18:06:55.793Z,52.11
2019-04-23T18:09:51.362Z,52.20
2019-04-23T18:12:05.417Z,52.56
2019-04-23T18:14:17.372Z,54.86
2019-04-23T18:16:57.557Z,56.88
2019-04-23T18:19:23.266Z,56.00
2019-04-23T18:22:02.619Z,56.72
2019-04-23T18:24:40.996Z,57.13
2019-04-23T18:32:44.638Z,59.73
2019-04-23T18:37:34.632Z,59.63
2019-04-23T18:40:23.181Z,60.15
2019-04-23T18:42:40.302Z,61.12
2019-04-23T18:45:20.406Z,61.86
2019-04-23T18:47:48.993Z,61.86
2019-04-23T18:50:12.378Z,61.64
2019-04-23T18:55:17.209Z,62.65
2019-04-23T18:57:42.346Z,62.38
2019-04-23T19:00:18.872Z,62.30
2019-04-23T19:02:49.437Z,63.03
2019-04-23T19:05:32.037Z,63.32
2019-04-23T19:08:10.651Z,63.50
2019-04-23T19:10:31.700Z,63.59
2019-04-23T19:13:07.064Z,63.85
2019-04-23T19:17:56.482Z,64.33
2019-04-23T19:22:55.029Z,63.72
2019-04-23T19:25:22.237Z,63.77
2019-04-23T19:33:16.680Z,64.71
2019-04-23T19:36:01.496Z,64.84
2019-04-23T19:38:13.622Z,62.98
2019-04-23T19:40:46.788Z,63.22
2019-04-23T19:43:15.020Z,62.67
2019-04-23T19:50:51.980Z,64.01
2019-04-23T19:58:14.267Z,64.20
2019-04-23T20:01:11.798Z,64.11
2019-04-23T20:05:49.874Z,63.94
2019-04-23T20:08:24.729Z,63.52
2019-04-23T20:10:44.560Z,62.34
2019-04-23T20:13:30.663Z,61.78
2019-04-23T20:18:25.232Z,62.18
2019-04-23T20:20:55.144Z,62.02
2019-04-23T20:23:40.245Z,62.83
2019-04-23T20:28:40.743Z,62.57
2019-04-23T20:34:01.251Z,62.45
2019-04-23T20:36:38.507Z,62.80
2019-04-23T20:41:39.767Z,63.34
2019-04-23T20:43:58.984Z,62.24
2019-04-23T20:46:44.594Z,62.03
2019-04-23T20:51:24.715Z,62.04
2019-04-23T20:53:52.909Z,62.69
2019-04-23T20:56:29.891Z,63.09
2019-04-23T21:01:31.115Z,63.64
2019-04-23T21:03:56.639Z,63.08
2019-04-23T21:06:28.366Z,63.33
2019-04-23T21:11:36.641Z,64.46
2019-04-23T21:16:30.963Z,65.50
2019-04-23T21:18:57.256Z,65.93
2019-04-23T21:21:40.001Z,66.15
2019-04-23T21:23:57.093Z,66.88
2019-04-23T21:26:33.202Z,67.09
2019-04-23T21:29:04.018Z,67.80
2019-04-23T21:31:28.320Z,68.84
2019-04-23T21:36:40.379Z,67.94
2019-04-23T21:42:41.088Z,68.79
2019-04-23T21:46:56.548Z,68.56
2019-04-23T21:54:21.204Z,69.26
2019-04-23T21:59:32.409Z,69.79
2019-04-23T22:02:01.874Z,70.25
2019-04-23T22:04:34.218Z,70.66
2019-04-23T22:06:52.981Z,70.78
2019-04-23T22:09:27.214Z,70.77
2019-04-23T22:12:03.509Z,71.31
2019-04-23T22:14:29.007Z,71.19
2019-04-23T22:17:09.504Z,70.95
2019-04-23T22:19:20.198Z,70.82
2019-04-23T22:21:57.335Z,70.18
2019-04-23T22:24:25.357Z,69.11
2019-04-23T22:26:53.281Z,69.14
2019-04-23T22:29:26.227Z,69.43
2019-04-23T22:31:52.175Z,70.82
2019-04-23T22:37:07.926Z,70.63
2019-04-23T22:39:25.359Z,70.64
2019-04-23T22:42:13.682Z,71.02
2019-04-23T22:44:32.893Z,71.47
2019-04-23T22:47:02.362Z,71.32
2019-04-23T22:49:42.328Z,71.69
2019-04-23T22:52:02.647Z,71.83
2019-04-23T22:54:25.944Z,72.19
2019-04-23T23:02:18.548Z,72.76
2019-04-23T23:05:01.876Z,72.34
2019-04-23T23:07:23.568Z,72.62
2019-04-23T23:09:53.869Z,73.37
2019-04-23T23:12:24.119Z,73.59
2019-04-23T23:14:56.314Z,73.77
2019-04-23T23:17:22.730Z,74.06
2019-04-23T23:20:01.701Z,73.82
2019-04-23T23:22:19.350Z,74.36
2019-04-23T23:24:55.931Z,74.50
2019-04-23T23:27:16.649Z,74.63
2019-04-23T23:30:00.347Z,75.11
2019-04-23T23:35:08.236Z,75.38
2019-04-23T23:37:19.145Z,75.39
2019-04-23T23:42:16.005Z,75.58
2019-04-23T23:44:56.246Z,75.03
2019-04-23T23:47:28.908Z,75.13
2019-04-23T23:49:56.608Z,75.46
2019-04-23T23:52:19.475Z,75.54
2019-04-23T23:54:54.286Z,75.63
2019-04-23T23:57:30.827Z,75.60
